PWSweather.com
Personal Weather Stations
Station Observations
N3SME
Betz Creek, Wilmington Island, Savannah, GA 31410

Betz Creek, Wilmington IslandSavannah, GA 31410

Lat: 32.023021, Lon: -80.959452

Elevation: 15

Station Type: Ambient

High Low Average
Temperature 98.9°F37.2°C 80.5°F26.9°C 87.4°F30.8°C
Dew Point 78.3°F25.7°C 69.0°F20.6°C 74.0°F23.3°C
Winds 14.1 mph 22.7 kmh Calm Calm 4.0 mph SW6.4 kmh SW
Wind Gusts 38.5 mph62.0 kmh 1.8 mph2.9 kmh 18.0 mph29.0 kmh
Humidity 87% 41% 67%
Pressure 29.87 in1011.5 mb 29.75 in1007.5 mb -
Precipitation 0.00 in0.0 mm - -
Hour Temp Dew Point Humidity Winds Wind Gusts Pressure Precip Precip Rate Daily Precip Total
12:12 AM 85.5°F29.7°C 75.2°F24.0°C 72% 3.6 mph W5.8 kmh W 17.4 mph28.0 kmh 29.86 in1011.2 mb 0.00 in0.0 mm 0.00 in/hr0.0 mm/hr 0.00 in0.0 mm
12:27 AM 85.4°F29.7°C 75.0°F23.9°C 72% 5.1 mph W8.2 kmh W 17.4 mph28.0 kmh 29.86 in1011.2 mb 0.00 in0.0 mm 0.00 in/hr0.0 mm/hr 0.00 in0.0 mm
12:42 AM 85.4°F29.7°C 75.0°F23.9°C 72% Calm Calm 21.0 mph33.8 kmh 29.86 in1011.2 mb 0.00 in0.0 mm 0.00 in/hr0.0 mm/hr 0.00 in0.0 mm
12:57 AM 85.0°F29.4°C 74.7°F23.7°C 72% 5.1 mph WSW8.2 kmh WSW 15.7 mph25.3 kmh 29.86 in1011.2 mb 0.00 in0.0 mm 0.00 in/hr0.0 mm/hr 0.00 in0.0 mm
01:12 AM 84.5°F29.2°C 74.6°F23.7°C 73% Calm Calm 15.7 mph25.3 kmh 29.86 in1011.2 mb 0.00 in0.0 mm 0.00 in/hr0.0 mm/hr 0.00 in0.0 mm
01:27 AM 84.3°F29.1°C 74.4°F23.6°C 73% 1.8 mph WSW2.9 kmh WSW 15.7 mph25.3 kmh 29.86 in1011.2 mb 0.00 in0.0 mm 0.00 in/hr0.0 mm/hr 0.00 in0.0 mm
01:42 AM 84.1°F28.9°C 74.7°F23.7°C 74% Calm Calm 12.3 mph19.8 kmh 29.86 in1011.2 mb 0.00 in0.0 mm 0.00 in/hr0.0 mm/hr 0.00 in0.0 mm
01:57 AM 84.1°F28.9°C 74.3°F23.5°C 73% 3.6 mph WSW5.8 kmh WSW 17.4 mph28.0 kmh 29.86 in1011.2 mb 0.00 in0.0 mm 0.00 in/hr0.0 mm/hr 0.00 in0.0 mm
02:12 AM 84.3°F29.1°C 74.4°F23.6°C 73% 3.6 mph WSW5.8 kmh WSW 17.4 mph28.0 kmh 29.85 in1010.8 mb 0.00 in0.0 mm 0.00 in/hr0.0 mm/hr 0.00 in0.0 mm
02:27 AM 83.7°F28.7°C 74.3°F23.5°C 74% 8.7 mph WSW14.0 kmh WSW 17.4 mph28.0 kmh 29.86 in1011.2 mb 0.00 in0.0 mm 0.00 in/hr0.0 mm/hr 0.00 in0.0 mm
02:42 AM 83.6°F28.7°C 74.6°F23.7°C 75% 1.8 mph WSW2.9 kmh WSW 17.4 mph28.0 kmh 29.86 in1011.2 mb 0.00 in0.0 mm 0.00 in/hr0.0 mm/hr 0.00 in0.0 mm
02:57 AM 83.4°F28.6°C 74.4°F23.6°C 75% 3.6 mph W5.8 kmh W 19.2 mph30.9 kmh 29.86 in1011.2 mb 0.00 in0.0 mm 0.00 in/hr0.0 mm/hr 0.00 in0.0 mm
03:12 AM 83.0°F28.3°C 74.5°F23.6°C 76% 1.8 mph WSW2.9 kmh WSW 19.2 mph30.9 kmh 29.86 in1011.2 mb 0.00 in0.0 mm 0.00 in/hr0.0 mm/hr 0.00 in0.0 mm
03:27 AM 82.7°F28.2°C 74.5°F23.6°C 77% 1.8 mph WSW2.9 kmh WSW 14.1 mph22.7 kmh 29.85 in1010.8 mb 0.00 in0.0 mm 0.00 in/hr0.0 mm/hr 0.00 in0.0 mm
03:42 AM 82.7°F28.2°C 74.5°F23.6°C 77% Calm Calm 12.3 mph19.8 kmh 29.85 in1010.8 mb 0.00 in0.0 mm 0.00 in/hr0.0 mm/hr 0.00 in0.0 mm
03:57 AM 82.5°F28.1°C 74.8°F23.8°C 78% 3.6 mph W5.8 kmh W 15.7 mph25.3 kmh 29.85 in1010.8 mb 0.00 in0.0 mm 0.00 in/hr0.0 mm/hr 0.00 in0.0 mm
04:12 AM 82.1°F27.8°C 74.8°F23.8°C 79% 6.9 mph W11.1 kmh W 19.2 mph30.9 kmh 29.85 in1010.8 mb 0.00 in0.0 mm 0.00 in/hr0.0 mm/hr 0.00 in0.0 mm
04:27 AM 81.9°F27.7°C 75.0°F23.9°C 80% 8.7 mph W14.0 kmh W 21.0 mph33.8 kmh 29.86 in1011.2 mb 0.00 in0.0 mm 0.00 in/hr0.0 mm/hr 0.00 in0.0 mm
04:42 AM 81.8°F27.7°C 75.2°F24.0°C 81% 5.1 mph WSW8.2 kmh WSW 17.4 mph28.0 kmh 29.86 in1011.2 mb 0.00 in0.0 mm 0.00 in/hr0.0 mm/hr 0.00 in0.0 mm
04:57 AM 81.6°F27.6°C 75.4°F24.1°C 82% 5.1 mph W8.2 kmh W 19.2 mph30.9 kmh 29.86 in1011.2 mb 0.00 in0.0 mm 0.00 in/hr0.0 mm/hr 0.00 in0.0 mm
05:12 AM 81.4°F27.4°C 75.3°F24.1°C 82% 6.9 mph W11.1 kmh W 15.7 mph25.3 kmh 29.86 in1011.2 mb 0.00 in0.0 mm 0.00 in/hr0.0 mm/hr 0.00 in0.0 mm
05:27 AM 81.4°F27.4°C 75.3°F24.1°C 82% 5.1 mph WSW8.2 kmh WSW 15.7 mph25.3 kmh 29.86 in1011.2 mb 0.00 in0.0 mm 0.00 in/hr0.0 mm/hr 0.00 in0.0 mm
05:42 AM 81.2°F27.3°C 75.5°F24.2°C 83% 5.1 mph WSW8.2 kmh WSW 21.0 mph33.8 kmh 29.86 in1011.2 mb 0.00 in0.0 mm 0.00 in/hr0.0 mm/hr 0.00 in0.0 mm
05:57 AM 81.0°F27.2°C 75.7°F24.3°C 84% Calm Calm 17.4 mph28.0 kmh 29.86 in1011.2 mb 0.00 in0.0 mm 0.00 in/hr0.0 mm/hr 0.00 in0.0 mm
06:12 AM 80.9°F27.2°C 76.2°F24.6°C 86% 6.9 mph W11.1 kmh W 15.7 mph25.3 kmh 29.86 in1011.2 mb 0.00 in0.0 mm 0.00 in/hr0.0 mm/hr 0.00 in0.0 mm
06:27 AM 80.7°F27.1°C 76.0°F24.4°C 86% 5.1 mph WSW8.2 kmh WSW 15.7 mph25.3 kmh 29.87 in1011.5 mb 0.00 in0.0 mm 0.00 in/hr0.0 mm/hr 0.00 in0.0 mm
06:42 AM 80.7°F27.1°C 76.4°F24.7°C 87% 1.8 mph WSW2.9 kmh WSW 17.4 mph28.0 kmh 29.86 in1011.2 mb 0.00 in0.0 mm 0.00 in/hr0.0 mm/hr 0.00 in0.0 mm
06:57 AM 80.5°F26.9°C 76.2°F24.6°C 87% 5.1 mph SW8.2 kmh SW 19.2 mph30.9 kmh 29.87 in1011.5 mb 0.00 in0.0 mm 0.00 in/hr0.0 mm/hr 0.00 in0.0 mm
07:12 AM 80.9°F27.2°C 76.6°F24.8°C 87% 5.1 mph W8.2 kmh W 19.2 mph30.9 kmh 29.87 in1011.5 mb 0.00 in0.0 mm 0.00 in/hr0.0 mm/hr 0.00 in0.0 mm
07:27 AM 80.9°F27.2°C 76.6°F24.8°C 87% 6.9 mph WSW11.1 kmh WSW 21.0 mph33.8 kmh 29.87 in1011.5 mb 0.00 in0.0 mm 0.00 in/hr0.0 mm/hr 0.00 in0.0 mm
07:42 AM 81.2°F27.3°C 76.6°F24.8°C 86% 3.6 mph SW5.8 kmh SW 21.0 mph33.8 kmh 29.87 in1011.5 mb 0.00 in0.0 mm 0.00 in/hr0.0 mm/hr 0.00 in0.0 mm
07:57 AM 81.6°F27.6°C 76.9°F24.9°C 86% 3.6 mph WSW5.8 kmh WSW 24.6 mph39.6 kmh 29.87 in1011.5 mb 0.00 in0.0 mm 0.00 in/hr0.0 mm/hr 0.00 in0.0 mm
08:12 AM 82.1°F27.8°C 77.1°F25.1°C 85% 6.9 mph WSW11.1 kmh WSW 29.8 mph48.0 kmh 29.87 in1011.5 mb 0.00 in0.0 mm 0.00 in/hr0.0 mm/hr 0.00 in0.0 mm
08:27 AM 82.8°F28.2°C 77.0°F25.0°C 83% 5.1 mph WSW8.2 kmh WSW 21.0 mph33.8 kmh 29.87 in1011.5 mb 0.00 in0.0 mm 0.00 in/hr0.0 mm/hr 0.00 in0.0 mm
08:42 AM 83.6°F28.7°C 77.4°F25.2°C 82% 6.9 mph WSW11.1 kmh WSW 26.2 mph42.2 kmh 29.87 in1011.5 mb 0.00 in0.0 mm 0.00 in/hr0.0 mm/hr 0.00 in0.0 mm
08:57 AM 84.3°F29.1°C 77.7°F25.4°C 81% 8.7 mph WSW14.0 kmh WSW 26.2 mph42.2 kmh 29.86 in1011.2 mb 0.00 in0.0 mm 0.00 in/hr0.0 mm/hr 0.00 in0.0 mm
09:12 AM 84.8°F29.3°C 77.4°F25.2°C 79% 8.7 mph WSW14.0 kmh WSW 26.2 mph42.2 kmh 29.86 in1011.2 mb 0.00 in0.0 mm 0.00 in/hr0.0 mm/hr 0.00 in0.0 mm
09:27 AM 85.7°F29.8°C 77.1°F25.1°C 76% 5.1 mph WSW8.2 kmh WSW 29.8 mph48.0 kmh 29.86 in1011.2 mb 0.00 in0.0 mm 0.00 in/hr0.0 mm/hr 0.00 in0.0 mm
09:42 AM 86.6°F30.3°C 77.5°F25.3°C 75% 8.7 mph WSW14.0 kmh WSW 22.8 mph36.7 kmh 29.86 in1011.2 mb 0.00 in0.0 mm 0.00 in/hr0.0 mm/hr 0.00 in0.0 mm
09:57 AM 87.9°F31.1°C 77.5°F25.3°C 72% 8.7 mph WSW14.0 kmh WSW 21.0 mph33.8 kmh 29.86 in1011.2 mb 0.00 in0.0 mm 0.00 in/hr0.0 mm/hr 0.00 in0.0 mm
10:12 AM 88.6°F31.4°C 78.1°F25.6°C 72% 3.6 mph WSW5.8 kmh WSW 15.7 mph25.3 kmh 29.85 in1010.8 mb 0.00 in0.0 mm 0.00 in/hr0.0 mm/hr 0.00 in0.0 mm
10:27 AM 89.3°F31.8°C 77.5°F25.3°C 69% 8.7 mph WSW14.0 kmh WSW 22.8 mph36.7 kmh 29.86 in1011.2 mb 0.00 in0.0 mm 0.00 in/hr0.0 mm/hr 0.00 in0.0 mm
10:42 AM 90.0°F32.2°C 77.7°F25.4°C 68% 5.1 mph SW8.2 kmh SW 21.0 mph33.8 kmh 29.87 in1011.5 mb 0.00 in0.0 mm 0.00 in/hr0.0 mm/hr 0.00 in0.0 mm
10:57 AM 90.2°F32.3°C 78.3°F25.7°C 69% 3.6 mph W5.8 kmh W 22.8 mph36.7 kmh 29.86 in1011.2 mb 0.00 in0.0 mm 0.00 in/hr0.0 mm/hr 0.00 in0.0 mm
02:12 PM 98.0°F36.7°C 73.0°F22.8°C 47% 8.7 mph WNW14.0 kmh WNW 31.5 mph50.7 kmh 29.81 in1009.5 mb 0.00 in0.0 mm 0.00 in/hr0.0 mm/hr 0.00 in0.0 mm
02:27 PM 97.6°F36.4°C 73.4°F23.0°C 48% 3.6 mph W5.8 kmh W 22.8 mph36.7 kmh 29.80 in1009.1 mb 0.00 in0.0 mm 0.00 in/hr0.0 mm/hr 0.00 in0.0 mm
02:42 PM 98.1°F36.7°C 73.9°F23.3°C 48% 3.6 mph W5.8 kmh W 22.8 mph36.7 kmh 29.80 in1009.1 mb 0.00 in0.0 mm 0.00 in/hr0.0 mm/hr 0.00 in0.0 mm
02:57 PM 97.2°F36.2°C 72.4°F22.4°C 47% 14.1 mph W22.7 kmh W 24.6 mph39.6 kmh 29.80 in1009.1 mb 0.00 in0.0 mm 0.00 in/hr0.0 mm/hr 0.00 in0.0 mm
03:12 PM 97.4°F36.3°C 73.2°F22.9°C 48% 3.6 mph W5.8 kmh W 29.8 mph48.0 kmh 29.78 in1008.5 mb 0.00 in0.0 mm 0.00 in/hr0.0 mm/hr 0.00 in0.0 mm
03:27 PM 98.1°F36.7°C 73.2°F22.9°C 47% 3.6 mph W5.8 kmh W 22.8 mph36.7 kmh 29.78 in1008.5 mb 0.00 in0.0 mm 0.00 in/hr0.0 mm/hr 0.00 in0.0 mm
03:42 PM 98.7°F37.1°C 73.7°F23.2°C 47% 3.6 mph WSW5.8 kmh WSW 22.8 mph36.7 kmh 29.77 in1008.1 mb 0.00 in0.0 mm 0.00 in/hr0.0 mm/hr 0.00 in0.0 mm
03:57 PM 98.0°F36.7°C 70.1°F21.2°C 43% 8.7 mph W14.0 kmh W 38.5 mph62.0 kmh 29.77 in1008.1 mb 0.00 in0.0 mm 0.00 in/hr0.0 mm/hr 0.00 in0.0 mm
04:12 PM 98.5°F36.9°C 72.0°F22.2°C 45% 3.6 mph W5.8 kmh W 26.2 mph42.2 kmh 29.77 in1008.1 mb 0.00 in0.0 mm 0.00 in/hr0.0 mm/hr 0.00 in0.0 mm
04:27 PM 98.9°F37.2°C 69.3°F20.7°C 41% 5.1 mph W8.2 kmh W 28.0 mph45.1 kmh 29.77 in1008.1 mb 0.00 in0.0 mm 0.00 in/hr0.0 mm/hr 0.00 in0.0 mm
04:42 PM 98.5°F36.9°C 69.0°F20.6°C 41% 3.6 mph W5.8 kmh W 22.8 mph36.7 kmh 29.77 in1008.1 mb 0.00 in0.0 mm 0.00 in/hr0.0 mm/hr 0.00 in0.0 mm
04:57 PM 97.4°F36.3°C 70.3°F21.3°C 44% 5.1 mph W8.2 kmh W 28.0 mph45.1 kmh 29.77 in1008.1 mb 0.00 in0.0 mm 0.00 in/hr0.0 mm/hr 0.00 in0.0 mm
05:12 PM 96.2°F35.7°C 70.7°F21.5°C 46% 3.6 mph W5.8 kmh W 19.2 mph30.9 kmh 29.76 in1007.8 mb 0.00 in0.0 mm 0.00 in/hr0.0 mm/hr 0.00 in0.0 mm
05:27 PM 96.0°F35.6°C 70.5°F21.4°C 46% 6.9 mph WNW11.1 kmh WNW 31.5 mph50.7 kmh 29.76 in1007.8 mb 0.00 in0.0 mm 0.00 in/hr0.0 mm/hr 0.00 in0.0 mm
05:42 PM 95.1°F35.1°C 71.1°F21.7°C 48% 8.7 mph WNW14.0 kmh WNW 22.8 mph36.7 kmh 29.76 in1007.8 mb 0.00 in0.0 mm 0.00 in/hr0.0 mm/hr 0.00 in0.0 mm
05:57 PM 94.5°F34.7°C 71.3°F21.8°C 49% 3.6 mph WNW5.8 kmh WNW 12.3 mph19.8 kmh 29.76 in1007.8 mb 0.00 in0.0 mm 0.00 in/hr0.0 mm/hr 0.00 in0.0 mm
06:12 PM 94.5°F34.7°C 71.3°F21.8°C 49% 3.6 mph WNW5.8 kmh WNW 22.8 mph36.7 kmh 29.75 in1007.5 mb 0.00 in0.0 mm 0.00 in/hr0.0 mm/hr 0.00 in0.0 mm
06:27 PM 94.2°F34.6°C 72.3°F22.4°C 51% Calm Calm 14.1 mph22.7 kmh 29.76 in1007.8 mb 0.00 in0.0 mm 0.00 in/hr0.0 mm/hr 0.00 in0.0 mm
06:42 PM 93.6°F34.2°C 71.8°F22.1°C 51% 5.1 mph W8.2 kmh W 22.8 mph36.7 kmh 29.76 in1007.8 mb 0.00 in0.0 mm 0.00 in/hr0.0 mm/hr 0.00 in0.0 mm
06:57 PM 92.6°F33.7°C 71.4°F21.9°C 52% 5.1 mph NW8.2 kmh NW 29.8 mph48.0 kmh 29.76 in1007.8 mb 0.00 in0.0 mm 0.00 in/hr0.0 mm/hr 0.00 in0.0 mm
07:12 PM 91.3°F32.9°C 72.6°F22.6°C 56% Calm Calm 12.3 mph19.8 kmh 29.77 in1008.1 mb 0.00 in0.0 mm 0.00 in/hr0.0 mm/hr 0.00 in0.0 mm
07:27 PM 90.0°F32.2°C 73.7°F23.2°C 60% Calm Calm 6.9 mph11.1 kmh 29.78 in1008.5 mb 0.00 in0.0 mm 0.00 in/hr0.0 mm/hr 0.00 in0.0 mm
07:42 PM 89.0°F31.7°C 73.7°F23.2°C 62% Calm Calm 3.6 mph5.8 kmh 29.77 in1008.1 mb 0.00 in0.0 mm 0.00 in/hr0.0 mm/hr 0.00 in0.0 mm
07:57 PM 87.9°F31.1°C 73.7°F23.2°C 64% Calm Calm 1.8 mph2.9 kmh 29.77 in1008.1 mb 0.00 in0.0 mm 0.00 in/hr0.0 mm/hr 0.00 in0.0 mm
08:12 PM 87.3°F30.7°C 74.2°F23.4°C 66% Calm Calm 1.8 mph2.9 kmh 29.77 in1008.1 mb 0.00 in0.0 mm 0.00 in/hr0.0 mm/hr 0.00 in0.0 mm
08:27 PM 88.1°F31.2°C 74.4°F23.6°C 65% 6.9 mph WNW11.1 kmh WNW 15.7 mph25.3 kmh 29.78 in1008.5 mb 0.00 in0.0 mm 0.00 in/hr0.0 mm/hr 0.00 in0.0 mm
08:42 PM 88.6°F31.4°C 73.9°F23.3°C 63% 1.8 mph W2.9 kmh W 17.4 mph28.0 kmh 29.78 in1008.5 mb 0.00 in0.0 mm 0.00 in/hr0.0 mm/hr 0.00 in0.0 mm
08:57 PM 88.2°F31.2°C 74.1°F23.4°C 64% Calm Calm 6.9 mph11.1 kmh 29.77 in1008.1 mb 0.00 in0.0 mm 0.00 in/hr0.0 mm/hr 0.00 in0.0 mm
09:12 PM 87.7°F30.9°C 73.0°F22.8°C 63% 1.8 mph WNW2.9 kmh WNW 17.4 mph28.0 kmh 29.78 in1008.5 mb 0.00 in0.0 mm 0.00 in/hr0.0 mm/hr 0.00 in0.0 mm
09:27 PM 87.2°F30.7°C 72.5°F22.5°C 63% 1.8 mph W2.9 kmh W 12.3 mph19.8 kmh 29.79 in1008.8 mb 0.00 in0.0 mm 0.00 in/hr0.0 mm/hr 0.00 in0.0 mm
09:42 PM 86.8°F30.4°C 72.2°F22.3°C 63% Calm Calm 12.3 mph19.8 kmh 29.78 in1008.5 mb 0.00 in0.0 mm 0.00 in/hr0.0 mm/hr 0.00 in0.0 mm
09:57 PM 86.6°F30.3°C 72.5°F22.5°C 64% Calm Calm 5.1 mph8.2 kmh 29.79 in1008.8 mb 0.00 in0.0 mm 0.00 in/hr0.0 mm/hr 0.00 in0.0 mm
10:12 PM 86.1°F30.1°C 72.0°F22.2°C 64% Calm Calm 3.6 mph5.8 kmh 29.79 in1008.8 mb 0.00 in0.0 mm 0.00 in/hr0.0 mm/hr 0.00 in0.0 mm
10:27 PM 85.2°F29.6°C 72.1°F22.3°C 66% Calm Calm 3.6 mph5.8 kmh 29.79 in1008.8 mb 0.00 in0.0 mm 0.00 in/hr0.0 mm/hr 0.00 in0.0 mm
10:42 PM 85.0°F29.4°C 72.4°F22.4°C 67% 1.8 mph W2.9 kmh W 5.1 mph8.2 kmh 29.80 in1009.1 mb 0.00 in0.0 mm 0.00 in/hr0.0 mm/hr 0.00 in0.0 mm
10:57 PM 85.2°F29.6°C 72.1°F22.3°C 66% 1.8 mph NW2.9 kmh NW 14.1 mph22.7 kmh 29.81 in1009.5 mb 0.00 in0.0 mm 0.00 in/hr0.0 mm/hr 0.00 in0.0 mm
11:12 PM 85.0°F29.4°C 72.0°F22.2°C 66% 3.6 mph WNW5.8 kmh WNW 15.7 mph25.3 kmh 29.80 in1009.1 mb 0.00 in0.0 mm 0.00 in/hr0.0 mm/hr 0.00 in0.0 mm
11:27 PM 84.8°F29.3°C 71.8°F22.1°C 66% Calm Calm 14.1 mph22.7 kmh 29.81 in1009.5 mb 0.00 in0.0 mm 0.00 in/hr0.0 mm/hr 0.00 in0.0 mm
11:42 PM 84.5°F29.2°C 72.4°F22.4°C 68% 1.8 mph WNW2.9 kmh WNW 6.9 mph11.1 kmh 29.81 in1009.5 mb 0.00 in0.0 mm 0.00 in/hr0.0 mm/hr 0.00 in0.0 mm
11:57 PM 83.9°F28.8°C 72.3°F22.4°C 69% 1.8 mph W2.9 kmh W 8.7 mph14.0 kmh 29.81 in1009.5 mb 0.00 in0.0 mm 0.00 in/hr0.0 mm/hr 0.00 in0.0 mm